Latest Coastal Weather Observations for Wilsons Promontory

IDT60701

Issued at 7:45 am EST Wednesday 23 July 2014 (issued every 10 minutes, with the page automatically refreshed every 10 minutes)

About coastal observations | Map of coastal stations | Coastal observations for TAS | Marine services | Other Formats
Station Details ID: 085096 Name: WILSONS PROMONTORY LIGHTHOUSE Lat: -39.13 Lon: 146.42 Height: 95.0 m
Data from the previous 72 hours. | See also: Recent months at Wilsons Promontory
Date/Time
EST
Temp

°C
Wind Pressure Rain
since 9am
mm
Weather Cloud Vis
km
Sea
Height
m
Swell
Dir
 
Speed
knots
Gust
knots
hPa Trend Height
m
Period
s
Dir
23/07:30am 9.5 NE 6 6 1023.6 - - - - - - - - -
23/07:00am 9.9 ENE 5 6 1023.4 - - - - - - - - -
23/06:30am 9.8 ENE 4 5 1023.4 - - - - - - - - -
23/06:00am 9.9 E 3 4 1023.4 - - - - - - - - -
23/05:30am 9.9 E 4 5 1023.1 - - - - - - - - -
23/05:00am 10.0 SE 3 4 1023.1 - - - - - - - - -
23/04:30am 10.3 ESE 4 5 1023.2 - - - - - - - - -
23/04:00am 10.0 ESE 4 4 1023.4 - - - - - - - - -
23/03:30am 10.1 ESE 4 5 1023.3 - - - - - - - - -
23/03:00am 10.1 NE 1 4 1023.5 - - - - - - - - -
23/02:30am 9.9 CALM 0 0 1023.7 - - - - - - - - -
23/02:00am 9.7 CALM 0 0 1024.0 - - - - - - - - -
23/01:30am 9.8 CALM 0 0 1023.9 - - - - - - - - -
23/01:00am 9.9 CALM 0 0 1024.0 - - - - - - - - -
23/12:30am 9.6 NNE 3 4 1024.0 - - - - - - - - -
23/12:00am 9.7 NE 3 4 1024.2 - - - - - - - - -
 
Date/Time
EST
Temp

°C
Wind Pressure Rain
since 9am
mm
Weather Cloud Vis
km
Sea
Height
m
Swell
Dir
 
Speed
knots
Gust
knots
hPa Trend Height
m
Period
s
Dir
22/11:30pm 9.6 NE 4 4 1024.5 - - - - - - - - -
22/11:00pm 9.6 NE 4 4 1024.7 - - - - - - - - -
22/10:30pm 9.8 NE 3 4 1024.6 - - - - - - - - -
22/10:00pm 10.4 E 4 5 1024.6 - - - - - - - - -
22/09:30pm 10.2 E 3 4 1024.8 - - - - - - - - -
22/09:00pm 10.5 E 2 6 1024.9 - - - - - - - - -
22/08:30pm 10.2 CALM 0 0 1024.7 - - - - - - - - -
22/08:00pm 10.1 CALM 0 0 1024.5 - - - - - - - - -
22/07:30pm 10.2 CALM 0 0 1024.5 - - - - - - - - -
22/07:00pm 10.3 ESE 2 3 1024.6 - - - - - - - - -
22/06:30pm 10.2 CALM 0 0 1024.5 - - - - - - - - -
22/06:00pm 10.1 CALM 0 0 1024.5 - - - - - - - - -
22/05:30pm 10.4 SSW 3 4 1024.3 - - - - - - - - -
22/05:00pm 10.5 W 4 4 1024.2 - - - - - - - - -
22/04:30pm 11.0 W 5 6 1024.2 - - - - - - - - -
22/04:00pm 11.6 WSW 5 6 1024.2 - - - - - - - - -
22/03:30pm 12.0 W 6 7 1024.2 - - - - - - - - -
22/03:00pm 11.6 W 6 7 1024.3 - - - - - - - - -
22/02:30pm 11.4 W 6 9 1024.2 - - - - - - - - -
22/02:00pm 11.6 W 6 8 1024.2 - - - - - - - - -
22/01:30pm 11.9 W 6 8 1024.4 - - - - - - - - -
22/01:00pm 11.9 W 6 7 1024.8 - - - - - - - - -
22/12:00pm 12.0 W 3 6 1025.7 - - - - - - - - -
22/11:30am 12.0 CALM 0 0 1025.7 - - - - - - - - -
22/11:00am 11.9 WSW 4 5 1026.0 - 0.0 - - - - - - -
22/10:30am 12.2 CALM 0 0 1026.0 - 0.0 - - - - - - -
22/10:00am 12.1 WSW 3 4 1026.0 - 0.0 - - - - - - -
22/09:30am 11.3 W 4 4 1026.0 - 0.0 - - - - - - -
22/09:00am 11.4 CALM 0 2 1026.2 - 0.0 - - - - - - -
22/08:30am 10.6 WSW 4 5 1025.8 - 0.0 - - - - - - -
22/08:00am 10.3 CALM 0 0 1025.6 - 0.0 - - - - - - -
22/07:30am 9.7 CALM 0 0 1025.2 - 0.0 - - - - - - -
22/07:00am 9.9 CALM 0 0 1025.1 - 0.0 - - - - - - -
22/06:30am 9.6 CALM 0 0 1024.8 - 0.0 - - - - - - -
22/06:00am 9.8 CALM 0 0 1024.6 - 0.0 - - - - - - -
22/05:30am 9.9 CALM 0 0 1024.4 - 0.0 - - - - - - -
22/05:00am 9.4 SW 4 5 1024.4 - 0.0 - - - - - - -
22/04:30am 9.4 WSW 4 5 1024.4 - 0.0 - - - - - - -
22/04:00am 9.6 CALM 0 0 1024.3 - 0.0 - - - - - - -
22/03:30am 9.5 CALM 0 0 1024.4 - 0.0 - - - - - - -
22/03:00am 9.8 CALM 0 0 1024.5 - 0.0 - - - - - - -
22/02:30am 10.1 CALM 0 0 1024.5 - 0.0 - - - - - - -
22/02:00am 9.8 NE 1 4 1024.4 - 0.0 - - - - - - -
22/01:30am 9.7 NNE 4 5 1024.4 - 0.0 - - - - - - -
22/01:00am 9.7 NNE 3 4 1024.4 - 0.0 - - - - - - -
22/12:30am 9.8 NNE 4 5 1024.7 - 0.0 - - - - - - -
22/12:00am 9.9 NNE 5 7 1025.0 - 0.0 - - - - - - -
 
Date/Time
EST
Temp

°C
Wind Pressure Rain
since 9am
mm
Weather Cloud Vis
km
Sea
Height
m
Swell
Dir
 
Speed
knots
Gust
knots
hPa Trend Height
m
Period
s
Dir
21/11:30pm 9.8 NNE 6 7 1025.0 - 0.0 - - - - - - -
21/11:00pm 9.9 NNE 7 8 1025.0 - 0.0 - - - - - - -
21/10:30pm 9.9 NNE 7 8 1025.1 - 0.0 - - - - - - -
21/10:00pm 10.0 NNE 7 8 1025.1 - 0.0 - - - - - - -
21/09:30pm 10.0 NNE 7 8 1025.0 - 0.0 - - - - - - -
21/09:00pm 10.1 NNE 7 8 1025.2 - 0.0 - - - - - - -
21/08:30pm 10.0 N 7 9 1025.0 - 0.0 - - - - - - -
21/08:00pm 10.0 NNE 7 8 1025.1 - 0.0 - - - - - - -
21/07:30pm 10.0 NNE 5 6 1025.2 - 0.0 - - - - - - -
21/07:00pm 10.0 NE 5 5 1025.2 - 0.0 - - - - - - -
21/06:30pm 10.4 ENE 4 5 1025.0 - 0.0 - - - - - - -
21/06:00pm 10.3 ENE 4 5 1025.0 - 0.0 - - - - - - -
21/05:30pm 10.5 ENE 4 5 1024.7 - 0.0 - - - - - - -
21/05:00pm 10.8 E 3 4 1024.6 - 0.0 - - - - - - -
21/04:30pm 11.0 CALM 0 0 1024.5 - 0.0 - - - - - - -
21/04:00pm 11.2 CALM 0 0 1024.4 - 0.0 - - - - - - -
21/03:30pm 11.4 CALM 0 0 1024.3 - 0.0 - - - - - - -
21/03:00pm 11.5 CALM 0 0 1024.3 - 0.0 - - - - - - -
21/02:30pm 11.7 CALM 0 3 1024.1 - 0.0 - - - - - - -
21/02:00pm 12.0 S 4 5 1024.1 - 0.0 - - - - - - -
21/01:30pm 12.1 SSW 2 4 1024.3 - 0.0 - - - - - - -
21/01:00pm 11.8 WNW 1 3 1024.6 - 0.0 - - - - - - -
21/12:30pm 12.1 N 2 4 1024.9 - 0.0 - - - - - - -
21/12:00pm 12.0 NNE 3 5 1025.3 - 0.0 - - - - - - -
21/11:30am 11.9 NE 6 7 1025.5 - 0.0 - - - - - - -
21/11:00am 11.9 NNE 5 8 1025.8 - 0.0 - - - - - - -
21/10:30am 11.6 NNE 5 7 1025.9 - 0.0 - - - - - - -
21/10:00am 11.3 NNE 5 6 1025.9 - 0.0 - - - - - - -
21/09:30am 11.4 NE 6 7 1026.1 - 0.0 - - - - - - -
21/09:00am 10.8 ENE 6 7 1026.2 - 0.2 - - - - - - -
21/08:30am 10.6 N 4 5 1025.9 - 0.2 - - - - - - -
21/08:00am 10.2 NNE 4 5 1026.0 - 0.2 - - - - - - -
21/07:30am 10.0 NE 3 4 1025.9 - 0.2 - - - - - - -
21/07:00am 10.0 NE 3 4 1025.7 - 0.2 - - - - - - -
21/06:30am 10.2 NE 4 5 1025.4 - 0.2 - - - - - - -
21/06:00am 10.2 ENE 3 4 1025.6 - 0.2 - - - - - - -
21/05:30am 10.2 NNE 3 3 1025.3 - 0.2 - - - - - - -
21/05:00am 10.2 NNE 3 4 1025.3 - 0.2 - - - - - - -
21/04:30am 10.2 NNE 4 4 1025.2 - 0.2 - - - - - - -
21/04:00am 10.2 E 3 3 1025.3 - 0.2 - - - - - - -
21/03:30am 10.3 NNE 1 3 1025.2 - 0.2 - - - - - - -
21/03:00am 10.3 NE 3 4 1025.5 - 0.2 - - - - - - -
21/02:30am 10.3 CALM 0 2 1025.4 - 0.2 - - - - - - -
21/02:00am 10.4 CALM 0 3 1025.5 - 0.2 - - - - - - -
21/01:30am 10.3 CALM 0 3 1025.6 - 0.0 - - - - - - -
21/01:00am 10.3 ENE 5 5 1025.5 - 0.0 - - - - - - -
21/12:30am 10.3 SSE 2 4 1025.7 - 0.0 - - - - - - -
21/12:00am 10.3 CALM 0 0 1026.1 - 0.0 - - - - - - -
 
Date/Time
EST
Temp

°C
Wind Pressure Rain
since 9am
mm
Weather Cloud Vis
km
Sea
Height
m
Swell
Dir
 
Speed
knots
Gust
knots
hPa Trend Height
m
Period
s
Dir
20/11:30pm 10.3 CALM 0 0 1026.1 - 0.0 - - - - - - -
20/11:00pm 10.5 SSW 3 5 1026.1 - 0.0 - - - - - - -
20/10:30pm 10.5 SSW 3 5 1026.2 - 0.0 - - - - - - -
20/10:00pm 10.7 SSW 5 8 1026.1 - 0.0 - - - - - - -
20/09:30pm 11.0 SW 4 7 1026.3 - 0.0 - - - - - - -
20/09:00pm 10.9 W 5 7 1026.4 - 0.0 - - - - - - -
20/08:30pm 10.9 W 4 6 1026.3 - 0.0 - - - - - - -
20/08:00pm 10.9 W 5 7 1026.3 - 0.0 - - - - - - -
20/07:30pm 10.7 W 6 8 1026.3 - 0.0 - - - - - - -
20/07:00pm 10.9 NW 5 9 1026.3 - 0.0 - - - - - - -
20/06:30pm 10.8 WNW 8 10 1026.2 - 0.0 - - - - - - -
20/06:00pm 10.7 W 7 9 1026.2 - 0.0 - - - - - - -
20/05:30pm 10.8 W 8 11 1025.8 - 0.0 - - - - - - -
20/05:00pm 10.9 W 10 12 1025.7 - 0.0 - - - - - - -
20/04:30pm 11.1 W 7 11 1025.7 - 0.0 - - - - - - -
20/04:00pm 11.3 SW 13 19 1025.4 - 0.0 - - - - - - -
20/03:30pm 11.5 SW 12 17 1025.4 - 0.0 - - - - - - -
20/03:00pm 11.5 WSW 16 21 1025.5 - 0.0 - - - - - - -
20/02:30pm 11.4 WSW 17 21 1025.2 - 0.0 - - - - - - -
20/02:00pm 11.4 SW 17 20 1025.4 - 0.0 - - - - - - -
20/01:30pm 11.4 SW 16 20 1025.5 - 0.0 - - - - - - -
20/01:00pm 11.3 WSW 15 19 1025.8 - 0.0 - - - - - - -
20/12:30pm 11.7 WSW 11 14 1026.2 - 0.0 - - - - - - -
20/12:00pm 11.5 WSW 14 18 1026.6 - 0.0 - - - - - - -
20/11:30am 11.6 SW 15 19 1026.6 - 0.0 - - - - - - -
20/11:00am 11.6 SW 17 21 1026.7 - 0.0 - - - - - - -
20/10:30am 11.4 SW 19 21 1026.8 - 0.0 - - - - - - -
20/10:00am 11.4 WSW 7 13 1026.7 - 0.0 - - - - - - -
20/09:30am 11.4 SW 16 18 1026.8 - 0.0 - - - - - - -
20/09:00am 11.3 SW 9 16 1026.8 - 0.4 - - - - - - -
20/08:30am 11.3 SW 14 19 1026.5 - 0.4 - - - - - - -
20/08:00am 11.3 SW 19 24 1026.2 - 0.4 - - - - - - -

Other Formats:

Comma delimited format used in spreadsheet applications
http://www.bom.gov.au/fwo/IDT60701/IDT60701.94893.axf

JavaScript Object Notation format (JSON) in row-major order
http://www.bom.gov.au/fwo/IDT60701/IDT60701.94893.json